Time;durP1;ratioP1;P1;durP2;ratioP2;P2;SDS_P1;SDS_P2;PMS_P1;PMS_P2;Temp;Humidity;BMP_temperature;BMP_pressure;BME280_temperature;BME280_humidity;BME280_pressure;Samples;Min_cycle;Max_cycle;Signal;HPM_P1;HPM_P2
2022/11/28 00:01:17;;;;;;;8.10;7.40;;;;;;;3.66;77.45;95484.25;5042086;28;20191;-71
2022/11/28 00:03:47;;;;;;;7.75;7.13;;;;;;;3.64;77.75;95470.94;5024423;28;20191;-70
2022/11/28 00:06:16;;;;;;;7.90;7.30;;;;;;;3.63;77.35;95488.38;5024661;28;20195;-71
2022/11/28 00:08:44;;;;;;;7.70;7.10;;;;;;;3.57;77.24;95486.88;5024521;28;20201;-71
2022/11/28 00:11:12;;;;;;;8.65;7.95;;;;;;;3.58;77.94;95483.03;5039956;28;20209;-70
2022/11/28 00:13:43;;;;;;;7.93;7.22;;;;;;;3.61;77.95;95487.88;5024267;28;20224;-70
2022/11/28 00:16:16;;;;;;;7.78;7.18;;;;;;;3.55;78.10;95480.88;5039656;28;20518;-70
2022/11/28 00:18:45;;;;;;;7.88;7.28;;;;;;;3.53;77.97;95483.94;5039587;28;20348;-70
2022/11/28 00:21:13;;;;;;;8.10;7.50;;;;;;;3.49;77.73;95479.38;5024496;28;20190;-70
2022/11/28 00:23:46;;;;;;;7.80;7.20;;;;;;;3.47;78.01;95481.56;5025133;28;20206;-70
2022/11/28 00:26:17;;;;;;;8.25;7.55;;;;;;;3.50;78.11;95484.53;5042646;28;20301;-70
2022/11/28 00:28:45;;;;;;;8.05;7.40;;;;;;;3.42;77.96;95493.38;5042422;28;20194;-70
2022/11/28 00:31:13;;;;;;;7.82;7.22;;;;;;;3.38;78.30;95481.47;5041698;28;20629;-71
2022/11/28 00:33:43;;;;;;;7.43;6.82;;;;;;;3.37;78.34;95479.81;5041836;28;20198;-70
2022/11/28 00:36:12;;;;;;;7.35;6.80;;;;;;;3.38;78.35;95478.72;5024031;28;20206;-71
2022/11/28 00:38:41;;;;;;;7.28;6.78;;;;;;;3.35;78.09;95484.78;5040060;28;20290;-71
2022/11/28 00:41:12;;;;;;;6.85;6.35;;;;;;;3.29;78.08;95480.50;5039754;28;20194;-71
2022/11/28 00:43:40;;;;;;;6.78;6.28;;;;;;;3.29;78.48;95481.31;5021412;28;20265;-71
2022/11/28 00:46:09;;;;;;;7.00;6.40;;;;;;;3.31;78.45;95483.75;5037037;28;20191;-71
2022/11/28 00:48:36;;;;;;;6.40;5.90;;;;;;;3.28;78.49;95481.63;5020505;28;20198;-71
2022/11/28 00:51:10;;;;;;;5.93;5.53;;;;;;;3.26;78.67;95473.72;5021319;28;20621;-71
2022/11/28 00:53:39;;;;;;;5.80;5.40;;;;;;;3.21;78.88;95476.53;5021330;28;20214;-71
2022/11/28 00:56:08;;;;;;;5.70;5.30;;;;;;;3.25;78.51;95479.47;5022156;28;20252;-71
2022/11/28 00:58:37;;;;;;;5.53;5.13;;;;;;;3.27;78.75;95480.00;5024569;28;20226;-71
2022/11/28 01:01:11;;;;;;;5.55;5.15;;;;;;;3.23;78.45;95474.34;5039266;28;20195;-70
2022/11/28 01:03:39;;;;;;;5.18;4.88;;;;;;;3.24;78.66;95475.94;5020748;28;20220;-70
2022/11/28 01:06:10;;;;;;;5.28;4.88;;;;;;;3.24;78.72;95475.13;5021025;28;20197;-70
2022/11/28 01:08:39;;;;;;;4.72;4.43;;;;;;;3.24;78.40;95480.59;5039044;28;20186;-70
2022/11/28 01:11:11;;;;;;;4.80;4.50;;;;;;;3.16;78.32;95473.91;5020908;28;20285;-70
2022/11/28 01:13:39;;;;;;;4.43;4.13;;;;;;;3.15;78.57;95474.97;5040058;28;20214;-70
2022/11/28 01:16:08;;;;;;;4.38;4.07;;;;;;;3.04;78.91;95465.34;5024648;28;20194;-71
2022/11/28 01:18:36;;;;;;;4.47;4.18;;;;;;;3.02;78.36;95473.00;5023837;28;20218;-70
2022/11/28 01:21:05;;;;;;;4.15;3.85;;;;;;;3.03;78.87;95471.91;5024331;28;20205;-70
2022/11/28 01:23:35;;;;;;;4.22;3.92;;;;;;;2.96;78.76;95471.47;5024191;28;20313;-70
2022/11/28 01:26:04;;;;;;;4.75;4.45;;;;;;;2.99;78.98;95466.22;5024166;28;20198;-70
2022/11/28 01:28:33;;;;;;;4.57;4.28;;;;;;;2.95;78.70;95470.66;5040235;28;20175;-70
2022/11/28 01:31:05;;;;;;;4.55;4.25;;;;;;;2.96;78.85;95466.81;5023352;28;20194;-70
2022/11/28 01:33:34;;;;;;;4.78;4.47;;;;;;;2.96;78.75;95466.00;5023041;28;20202;-69
2022/11/28 01:36:04;;;;;;;4.78;4.38;;;;;;;2.91;78.74;95464.19;5022045;28;20202;-70
2022/11/28 01:38:34;;;;;;;4.40;4.10;;;;;;;2.85;78.59;95459.91;5022702;28;20229;-70
2022/11/28 01:41:03;;;;;;;4.70;4.30;;;;;;;2.84;79.33;95461.81;5022831;28;20195;-70
2022/11/28 01:43:31;;;;;;;4.43;4.13;;;;;;;2.83;79.08;95462.09;5024821;28;20214;-70
2022/11/28 01:46:00;;;;;;;4.32;4.03;;;;;;;2.82;78.87;95452.31;5026748;28;20228;-70
2022/11/28 01:48:32;;;;;;;4.70;4.40;;;;;;;2.81;79.16;95451.50;5027062;28;20205;-70
2022/11/28 01:51:03;;;;;;;4.32;4.03;;;;;;;2.77;78.97;95452.38;5027382;28;20229;-70
2022/11/28 01:53:30;;;;;;;3.70;3.50;;;;;;;2.78;79.59;95445.84;5028881;28;20542;-69
2022/11/28 01:56:03;;;;;;;4.53;4.22;;;;;;;2.75;79.32;95449.13;5028812;28;20214;-70
2022/11/28 01:58:32;;;;;;;4.00;3.80;;;;;;;2.77;79.34;95449.66;5027587;28;20268;-70
2022/11/28 02:01:01;;;;;;;4.20;3.90;;;;;;;2.77;78.80;95452.38;5044490;28;20267;-69
2022/11/28 02:03:33;;;;;;;4.05;3.75;;;;;;;2.79;78.88;95458.34;5028415;28;20190;-70
2022/11/28 02:06:06;;;;;;;4.18;3.88;;;;;;;2.81;78.70;95450.69;5028803;28;20276;-69
2022/11/28 02:08:36;;;;;;;4.00;3.70;;;;;;;2.83;78.75;95449.31;5045561;28;20206;-69
2022/11/28 02:11:17;;;;;;;4.30;4.00;;;;;;;2.82;78.66;95441.41;5028802;28;20212;-70
2022/11/28 02:13:51;;;;;;;3.72;3.53;;;;;;;2.81;78.82;95439.81;5028792;28;20194;-69
2022/11/28 02:16:32;;;;;;;4.30;4.00;;;;;;;2.80;78.71;95444.44;5027724;28;20206;-70
2022/11/28 02:19:43;;;;;;;3.72;3.50;;;;;;;2.75;78.56;95433.59;5027295;28;20233;-70
2022/11/28 02:22:17;;;;;;;4.13;3.83;;;;;;;2.72;78.76;95426.00;5042007;28;20249;-69
2022/11/28 02:25:17;;;;;;;3.83;3.63;;;;;;;2.75;78.28;95435.53;5024723;28;20195;-70
2022/11/28 02:28:22;;;;;;;3.70;3.50;;;;;;;2.76;78.69;95434.41;4950131;29;20215;-69
2022/11/28 02:30:59;;;;;;;3.78;3.58;;;;;;;2.76;78.52;95442.56;4935758;29;20272;-69
2022/11/28 02:33:30;;;;;;;3.88;3.67;;;;;;;2.74;78.91;95436.63;4949468;29;20201;-70
2022/11/28 02:36:03;;;;;;;4.07;3.80;;;;;;;2.78;78.74;95437.66;4948371;29;20193;-70
2022/11/28 02:38:42;;;;;;;4.20;3.90;;;;;;;2.71;79.04;95435.28;4947285;29;20228;-70
2022/11/28 02:41:18;;;;;;;4.22;3.92;;;;;;;2.70;79.08;95439.13;4945801;29;20271;-70
2022/11/28 02:43:54;;;;;;;3.60;3.40;;;;;;;2.70;78.94;95436.41;4947367;29;20212;-70
2022/11/28 02:46:27;;;;;;;3.90;3.70;;;;;;;2.65;79.28;95439.19;4948448;29;20207;-70
2022/11/28 02:49:00;;;;;;;3.88;3.67;;;;;;;2.68;79.36;95435.06;4949545;29;20209;-69
2022/11/28 02:51:34;;;;;;;3.97;3.67;;;;;;;2.66;79.10;95438.09;4950474;29;20223;-69
2022/11/28 02:54:04;;;;;;;4.10;3.80;;;;;;;2.65;79.05;95434.56;4950226;29;20200;-70
2022/11/28 02:56:33;;;;;;;3.80;3.50;;;;;;;2.68;79.24;95443.25;4949248;29;20215;-70
2022/11/28 02:59:02;;;;;;;3.90;3.70;;;;;;;2.71;79.23;95443.47;4949339;29;20217;-69
2022/11/28 03:01:35;;;;;;;3.70;3.50;;;;;;;2.71;78.70;95443.47;4950181;29;20201;-69
2022/11/28 03:04:17;;;;;;;3.83;3.63;;;;;;;2.73;78.94;95433.09;5005902;28;20206;-70
2022/11/28 03:06:51;;;;;;;3.60;3.40;;;;;;;2.76;79.40;95446.13;5021207;28;20203;-70
2022/11/28 03:09:54;;;;;;;3.53;3.33;;;;;;;2.75;79.05;95440.97;5020934;28;20210;-71
2022/11/28 03:12:29;;;;;;;3.38;3.17;;;;;;;2.76;79.05;95439.84;5018784;28;20202;-71
2022/11/28 03:15:00;;;;;;;3.38;3.17;;;;;;;2.78;79.46;95446.63;5024014;28;20187;-70
2022/11/28 03:17:34;;;;;;;3.42;3.22;;;;;;;2.78;79.10;95446.63;5006133;28;20199;-71
2022/11/28 03:20:16;;;;;;;3.25;3.05;;;;;;;2.76;78.67;95443.41;5022642;28;20226;-70
2022/11/28 03:22:57;;;;;;;3.70;3.50;;;;;;;2.75;79.15;95441.78;5024414;28;20266;-70
2022/11/28 03:25:28;;;;;;;3.20;3.00;;;;;;;2.74;79.26;95445.59;5024242;28;20226;-70
2022/11/28 03:27:59;;;;;;;3.78;3.50;;;;;;;2.74;79.22;95439.34;5020728;28;20206;-70
2022/11/28 03:30:34;;;;;;;3.58;3.38;;;;;;;2.75;79.50;95438.25;5020912;28;20207;-70
2022/11/28 03:33:04;;;;;;;3.63;3.33;;;;;;;2.76;79.62;95443.41;5020356;28;20202;-70
2022/11/28 03:35:39;;;;;;;3.65;3.45;;;;;;;2.78;79.10;95445.84;5020597;28;20282;-70
2022/11/28 03:38:13;;;;;;;3.47;3.28;;;;;;;2.74;79.67;95444.81;5038239;28;20272;-70
2022/11/28 03:40:45;;;;;;;3.70;3.50;;;;;;;2.72;79.39;95439.63;5022836;28;20219;-70
2022/11/28 03:43:17;;;;;;;3.60;3.40;;;;;;;2.68;79.79;95438.59;5039624;28;20199;-70
2022/11/28 03:45:47;;;;;;;3.38;3.17;;;;;;;2.66;80.20;95443.56;5022507;28;20703;-72
2022/11/28 03:48:16;;;;;;;3.70;3.40;;;;;;;2.66;80.02;95438.09;5021667;28;20207;-71
2022/11/28 03:50:47;;;;;;;3.72;3.45;;;;;;;2.65;79.88;95447.34;5020145;28;20198;-70
2022/11/28 03:53:19;;;;;;;3.40;3.10;;;;;;;2.64;80.15;95441.09;5020545;28;20199;-70
2022/11/28 03:55:50;;;;;;;3.47;3.28;;;;;;;2.64;80.31;95440.28;5019377;28;20201;-70
2022/11/28 03:58:23;;;;;;;3.58;3.30;;;;;;;2.65;80.44;95444.63;5019871;28;20268;-70
2022/11/28 04:01:00;;;;;;;3.60;3.40;;;;;;;2.71;80.57;95435.28;5021444;28;20219;-70
2022/11/28 04:03:37;;;;;;;3.30;3.10;;;;;;;2.70;80.26;95432.88;5019780;28;20302;-71
2022/11/28 04:06:12;;;;;;;3.20;3.00;;;;;;;2.70;80.68;95430.16;5020614;28;20217;-70
2022/11/28 04:08:42;;;;;;;4.13;3.83;;;;;;;2.70;80.88;95432.88;5021436;28;20641;-70
2022/11/28 04:11:13;;;;;;;3.38;3.17;;;;;;;2.71;80.43;95426.31;5021499;28;20317;-70
2022/11/28 04:13:45;;;;;;;3.25;3.05;;;;;;;2.72;79.83;95428.72;5021321;28;20206;-70
2022/11/28 04:16:19;;;;;;;2.83;2.63;;;;;;;2.78;80.29;95424.84;5021901;28;20209;-70
2022/11/28 04:18:53;;;;;;;3.00;2.80;;;;;;;2.80;80.59;95430.00;5021999;28;20227;-70
2022/11/28 04:21:26;;;;;;;2.95;2.75;;;;;;;2.83;80.03;95432.13;5022941;28;20203;-70
2022/11/28 04:23:55;;;;;;;2.83;2.72;;;;;;;2.85;79.88;95432.66;5025262;28;20203;-71
2022/11/28 04:26:27;;;;;;;3.10;2.90;;;;;;;2.86;79.39;95437.00;5023706;28;20213;-70
2022/11/28 04:28:56;;;;;;;3.10;2.90;;;;;;;2.89;79.69;95439.13;5024184;28;20217;-70
2022/11/28 04:31:23;;;;;;;2.85;2.65;;;;;;;2.90;79.82;95438.00;5025069;28;20285;-70
2022/11/28 04:33:58;;;;;;;3.20;3.00;;;;;;;2.88;79.70;95435.59;5024873;28;20186;-70
2022/11/28 04:36:28;;;;;;;2.90;2.70;;;;;;;2.91;79.88;95442.38;5024792;28;20206;-70
2022/11/28 04:38:59;;;;;;;2.90;2.70;;;;;;;2.93;79.65;95442.88;5042783;28;20600;-70
2022/11/28 04:41:34;;;;;;;2.67;2.58;;;;;;;2.97;79.88;95448.53;5024351;28;20195;-71
2022/11/28 04:44:09;;;;;;;2.92;2.72;;;;;;;2.99;79.64;95440.91;5023231;28;20210;-70
2022/11/28 04:46:41;;;;;;;3.40;3.20;;;;;;;2.99;79.44;95449.88;5023173;28;20216;-71
2022/11/28 04:49:10;;;;;;;3.00;2.80;;;;;;;2.98;79.99;95453.72;5040061;28;20210;-71
2022/11/28 04:51:45;;;;;;;3.03;2.83;;;;;;;3.00;80.11;95448.75;5024292;28;20202;-70
2022/11/28 04:54:20;;;;;;;3.00;2.80;;;;;;;2.99;79.55;95454.53;5024631;28;20201;-69
2022/11/28 04:56:53;;;;;;;2.58;2.40;;;;;;;2.96;80.02;95457.84;5040510;28;20197;-70
2022/11/28 04:59:22;;;;;;;2.75;2.63;;;;;;;2.95;79.74;95451.56;5020744;28;20228;-69
2022/11/28 05:01:51;;;;;;;3.10;2.90;;;;;;;2.95;79.92;95450.78;5036716;28;20183;-69
2022/11/28 05:04:18;;;;;;;3.65;3.38;;;;;;;2.95;79.26;95454.31;5018339;28;20206;-69
2022/11/28 05:06:47;;;;;;;4.22;3.92;;;;;;;2.94;79.49;95458.16;5036101;28;20187;-69
2022/11/28 05:09:16;;;;;;;4.68;4.38;;;;;;;2.93;79.48;95458.41;5036509;28;20178;-69
2022/11/28 05:11:43;;;;;;;3.67;3.47;;;;;;;2.94;80.18;95466.31;5035861;28;20210;-69
2022/11/28 05:14:11;;;;;;;4.13;3.83;;;;;;;2.94;80.24;95454.59;5018617;28;20221;-71
2022/11/28 05:16:39;;;;;;;3.40;3.20;;;;;;;2.96;79.72;95453.19;5035353;28;20434;-69
2022/11/28 05:19:10;;;;;;;3.50;3.30;;;;;;;2.99;80.02;95457.25;5036797;28;20437;-69
2022/11/28 05:21:38;;;;;;;3.50;3.30;;;;;;;2.93;79.55;95453.78;5015048;28;20254;-69
2022/11/28 05:24:08;;;;;;;3.78;3.58;;;;;;;2.91;79.84;95455.19;5015824;28;20191;-69
2022/11/28 05:26:37;;;;;;;3.50;3.30;;;;;;;2.88;79.84;95442.97;5015375;28;20214;-69
2022/11/28 05:29:05;;;;;;;3.10;2.90;;;;;;;2.92;80.10;95443.19;5014962;28;20240;-69
2022/11/28 05:31:33;;;;;;;2.90;2.70;;;;;;;2.93;79.53;95444.78;5014939;28;20202;-69
2022/11/28 05:34:01;;;;;;;2.75;2.55;;;;;;;2.95;79.85;95446.13;5014567;28;20650;-69
2022/11/28 05:36:27;;;;;;;3.22;3.03;;;;;;;2.93;80.35;95442.88;5014481;28;20207;-69
2022/11/28 05:38:56;;;;;;;3.92;3.72;;;;;;;2.97;79.99;95445.81;5014469;28;20211;-69
2022/11/28 05:41:27;;;;;;;3.17;2.88;;;;;;;2.99;79.72;95440.91;5014614;28;20218;-69
2022/11/28 05:43:56;;;;;;;3.30;3.10;;;;;;;2.98;80.03;95450.16;5015046;28;20428;-69
2022/11/28 05:46:25;;;;;;;2.88;2.67;;;;;;;2.98;80.10;95450.16;5016371;28;20272;-69
2022/11/28 05:48:53;;;;;;;2.65;2.45;;;;;;;3.00;79.98;95445.25;5015922;28;20270;-70
2022/11/28 05:51:21;;;;;;;2.90;2.70;;;;;;;3.01;79.61;95449.56;5017107;28;20195;-70
2022/11/28 05:53:49;;;;;;;3.13;2.92;;;;;;;2.98;79.58;95445.53;5017300;28;20264;-70
2022/11/28 05:56:17;;;;;;;2.88;2.67;;;;;;;2.95;79.41;95448.03;5017452;28;20199;-70
2022/11/28 05:58:46;;;;;;;7.28;6.88;;;;;;;2.93;79.71;95448.31;5017324;28;20184;-70
2022/11/28 06:01:17;;;;;;;3.10;2.90;;;;;;;2.94;79.98;95451.84;5016564;28;20227;-70
2022/11/28 06:03:45;;;;;;;2.83;2.63;;;;;;;2.89;80.10;95445.38;5015656;28;20199;-69
2022/11/28 06:06:17;;;;;;;3.60;3.30;;;;;;;2.86;80.55;95437.00;5015688;28;20195;-69
2022/11/28 06:08:46;;;;;;;3.15;2.95;;;;;;;2.85;79.82;95440.81;5015622;28;20261;-70
2022/11/28 06:11:15;;;;;;;3.35;3.15;;;;;;;2.85;80.37;95444.34;5015896;28;20195;-70
2022/11/28 06:13:43;;;;;;;3.53;3.33;;;;;;;2.91;80.24;95438.84;5015177;28;20203;-70
2022/11/28 06:16:14;;;;;;;3.60;3.30;;;;;;;2.94;80.59;95443.69;5016261;28;20214;-70
2022/11/28 06:18:42;;;;;;;3.80;3.50;;;;;;;2.97;80.14;95438.44;5016045;28;20604;-69
2022/11/28 06:21:11;;;;;;;4.22;3.92;;;;;;;2.96;80.04;95441.47;5016606;28;20234;-69
2022/11/28 06:23:40;;;;;;;3.90;3.63;;;;;;;2.96;79.96;95442.28;4996790;28;20194;-69
2022/11/28 06:26:11;;;;;;;3.70;3.40;;;;;;;2.99;79.99;95447.16;4996589;28;20188;-69
2022/11/28 06:28:39;;;;;;;3.50;3.20;;;;;;;2.96;79.58;95441.47;4997581;28;20188;-69
2022/11/28 06:31:12;;;;;;;3.65;3.38;;;;;;;2.98;79.92;95442.81;4999468;28;20188;-69
2022/11/28 06:33:41;;;;;;;3.35;3.15;;;;;;;2.96;80.10;95439.56;4998788;28;20218;-69
2022/11/28 06:36:12;;;;;;;3.70;3.50;;;;;;;2.97;79.37;95437.66;5014952;28;20238;-69
2022/11/28 06:38:39;;;;;;;4.00;3.70;;;;;;;2.97;79.66;95443.09;4998615;28;20208;-70
2022/11/28 06:41:08;;;;;;;4.30;4.00;;;;;;;2.98;79.29;95436.53;4998687;28;20214;-69
2022/11/28 06:43:36;;;;;;;4.05;3.80;;;;;;;2.95;79.47;95439.88;4998733;28;20199;-69
2022/11/28 06:46:05;;;;;;;3.70;3.50;;;;;;;2.97;78.96;95434.91;4998811;28;20209;-69
2022/11/28 06:48:35;;;;;;;3.45;3.25;;;;;;;2.96;78.85;95433.31;4998545;28;20207;-70
2022/11/28 06:51:04;;;;;;;3.65;3.45;;;;;;;2.88;79.22;95432.06;4998593;28;20200;-69
2022/11/28 06:53:32;;;;;;;4.00;3.70;;;;;;;2.93;79.16;95431.16;4998324;28;20200;-69
2022/11/28 06:56:05;;;;;;;4.53;4.13;;;;;;;2.91;78.44;95422.50;4999092;28;20215;-69
2022/11/28 06:58:32;;;;;;;4.80;4.50;;;;;;;2.92;79.58;95435.00;4998286;28;20257;-69
2022/11/28 07:01:07;;;;;;;6.38;5.97;;;;;;;2.92;79.60;95432.28;4999160;28;20211;-69
2022/11/28 07:03:38;;;;;;;9.50;8.80;;;;;;;2.93;78.94;95431.16;4997596;28;20209;-69
2022/11/28 07:06:05;;;;;;;8.55;7.85;;;;;;;2.92;79.29;95433.09;4998764;28;20286;-69
2022/11/28 07:08:34;;;;;;;8.30;7.60;;;;;;;2.93;79.47;95425.72;4998800;28;20223;-69
2022/11/28 07:11:10;;;;;;;6.93;6.43;;;;;;;2.87;78.61;95427.72;4997791;28;20203;-69
2022/11/28 07:13:41;;;;;;;7.47;6.97;;;;;;;2.82;78.39;95427.78;4998648;28;20246;-69
2022/11/28 07:16:12;;;;;;;7.03;6.40;;;;;;;2.82;79.10;95430.50;4998055;28;20203;-69
2022/11/28 07:18:45;;;;;;;6.40;5.93;;;;;;;2.85;79.84;95432.66;4998043;28;20200;-69
2022/11/28 07:21:15;;;;;;;6.55;6.07;;;;;;;2.88;78.92;95432.06;5014999;28;20302;-70
2022/11/28 07:23:45;;;;;;;5.32;4.93;;;;;;;2.93;79.27;95431.97;5037773;28;20202;-70
2022/11/28 07:26:15;;;;;;;7.15;6.55;;;;;;;2.86;78.85;95432.34;5037932;28;20198;-69
2022/11/28 07:28:44;;;;;;;9.45;8.75;;;;;;;2.83;78.37;95438.41;5038340;28;20186;-69
2022/11/28 07:31:13;;;;;;;7.55;6.95;;;;;;;2.85;79.08;95432.66;5038027;28;20195;-69
2022/11/28 07:33:45;;;;;;;6.53;6.03;;;;;;;2.83;78.99;95427.50;5021085;28;20214;-69
2022/11/28 07:36:13;;;;;;;5.72;5.32;;;;;;;2.86;79.30;95431.53;5020767;28;20206;-69
2022/11/28 07:38:42;;;;;;;4.07;3.83;;;;;;;2.84;78.41;95426.41;5020461;28;20266;-69
2022/11/28 07:41:12;;;;;;;3.83;3.53;;;;;;;2.88;77.95;95421.97;5038086;28;20210;-69
2022/11/28 07:43:43;;;;;;;3.63;3.42;;;;;;;2.92;78.05;95426.84;5020532;28;20198;-69
2022/11/28 07:46:13;;;;;;;4.40;4.10;;;;;;;2.95;78.17;95427.06;5037680;28;20190;-69
2022/11/28 07:48:43;;;;;;;5.38;4.88;;;;;;;2.97;78.60;95424.03;5020067;28;20205;-69
2022/11/28 07:51:13;;;;;;;5.72;5.13;;;;;;;2.98;78.56;95423.75;5020239;28;20203;-69
2022/11/28 07:53:41;;;;;;;6.47;5.88;;;;;;;3.13;78.89;95425.41;5020120;28;20206;-69
2022/11/28 07:56:12;;;;;;;9.60;8.70;;;;;;;3.20;79.14;95420.41;5020561;28;20202;-69
2022/11/28 07:58:41;;;;;;;9.10;8.30;;;;;;;3.31;78.73;95419.13;5036988;28;20572;-69
2022/11/28 08:01:10;;;;;;;7.90;7.30;;;;;;;3.23;77.48;95432.59;5019756;28;20655;-69
2022/11/28 08:03:39;;;;;;;8.95;8.20;;;;;;;3.24;78.12;95420.63;5020345;28;20205;-69
2022/11/28 08:06:08;;;;;;;6.90;6.30;;;;;;;3.25;77.84;95419.50;5037675;28;20179;-70
2022/11/28 08:08:37;;;;;;;10.07;9.18;;;;;;;3.28;77.53;95427.09;5019480;28;20649;-69
2022/11/28 08:11:09;;;;;;;12.95;11.85;;;;;;;3.27;77.03;95418.09;5036948;28;20210;-69
2022/11/28 08:13:37;;;;;;;18.63;17.00;;;;;;;3.28;77.87;95410.72;5037318;28;20191;-69
2022/11/28 08:16:06;;;;;;;10.00;9.27;;;;;;;3.23;77.78;95418.97;5019944;28;20216;-69
2022/11/28 08:18:33;;;;;;;7.32;6.80;;;;;;;3.20;77.80;95414.94;5020248;28;20626;-69
2022/11/28 08:21:06;;;;;;;7.13;6.53;;;;;;;3.24;77.66;95424.16;5019591;28;20650;-69
2022/11/28 08:23:37;;;;;;;5.78;5.32;;;;;;;3.14;77.31;95425.09;5037762;28;20257;-69
2022/11/28 08:26:07;;;;;;;5.50;5.10;;;;;;;2.95;77.83;95426.25;5020360;28;20226;-69
2022/11/28 08:28:38;;;;;;;4.00;3.70;;;;;;;2.89;77.67;95411.88;5019167;28;20214;-69
2022/11/28 08:31:12;;;;;;;5.55;5.15;;;;;;;3.00;78.26;95416.06;5019442;28;20194;-69
2022/11/28 08:33:41;;;;;;;6.28;5.72;;;;;;;3.11;77.98;95409.34;5019633;28;20270;-69
2022/11/28 08:36:11;;;;;;;7.10;6.50;;;;;;;3.10;77.89;95405.00;5019271;28;20277;-69
2022/11/28 08:38:42;;;;;;;8.55;7.72;;;;;;;3.09;78.47;95411.56;5019012;28;20293;-69
2022/11/28 08:41:13;;;;;;;6.70;6.20;;;;;;;3.02;78.19;95402.97;5036630;28;20232;-69
2022/11/28 08:43:43;;;;;;;8.98;8.18;;;;;;;3.08;78.72;95401.75;5036812;28;20213;-69
2022/11/28 08:46:13;;;;;;;10.98;10.07;;;;;;;3.16;78.78;95396.75;5018853;28;20195;-69
2022/11/28 08:48:40;;;;;;;9.30;8.60;;;;;;;3.25;78.94;95400.41;5036220;28;20202;-69
2022/11/28 08:51:13;;;;;;;6.00;5.60;;;;;;;3.24;79.41;95394.16;5035964;28;20201;-69
2022/11/28 08:53:42;;;;;;;5.50;5.05;;;;;;;3.24;78.94;95398.81;5036487;28;20197;-69
2022/11/28 08:56:10;;;;;;;5.60;5.20;;;;;;;3.23;78.89;95392.56;5018717;28;20214;-69
2022/11/28 08:58:38;;;;;;;5.30;4.90;;;;;;;3.34;78.29;95387.69;5036369;28;20206;-69
2022/11/28 09:01:14;;;;;;;5.40;5.00;;;;;;;3.42;77.60;95384.31;5036063;28;20569;-69
2022/11/28 09:03:43;;;;;;;4.72;4.38;;;;;;;3.24;77.08;95377.00;5036021;28;20266;-69
2022/11/28 09:06:11;;;;;;;5.28;4.88;;;;;;;3.17;77.47;95380.09;5035644;28;20205;-69
2022/11/28 09:08:39;;;;;;;5.00;4.70;;;;;;;3.20;77.19;95373.25;5018760;28;20205;-69
2022/11/28 09:11:12;;;;;;;5.20;4.80;;;;;;;3.08;77.25;95379.97;5036225;28;20191;-69
2022/11/28 09:13:40;;;;;;;4.85;4.45;;;;;;;3.11;78.01;95370.38;5036645;28;20218;-69
2022/11/28 09:16:11;;;;;;;4.00;3.70;;;;;;;2.97;77.72;95378.50;5035963;28;20195;-69
2022/11/28 09:18:41;;;;;;;4.40;4.03;;;;;;;2.98;77.89;95362.97;5035914;28;20693;-69
2022/11/28 09:21:12;;;;;;;4.70;4.30;;;;;;;3.09;78.79;95359.78;5018994;28;20218;-69
2022/11/28 09:23:42;;;;;;;4.55;4.25;;;;;;;3.31;77.26;95358.34;4996079;28;20206;-69
2022/11/28 09:26:14;;;;;;;5.28;4.88;;;;;;;3.31;77.21;95363.78;4995657;28;20206;-69
2022/11/28 09:28:45;;;;;;;5.00;4.70;;;;;;;3.22;77.28;95360.13;5011400;28;20226;-69
2022/11/28 09:31:14;;;;;;;5.20;4.80;;;;;;;3.09;78.48;95353.53;4996121;28;20191;-69
2022/11/28 09:33:43;;;;;;;5.22;4.82;;;;;;;3.14;79.15;95340.63;4995816;28;20226;-69
2022/11/28 09:36:12;;;;;;;7.20;6.60;;;;;;;3.33;78.86;95340.56;4996430;28;20212;-69
2022/11/28 09:38:40;;;;;;;8.75;8.05;;;;;;;3.52;78.76;95335.03;4996296;28;20188;-69
2022/11/28 09:41:35;;;;;;;10.85;9.95;;;;;;;3.60;78.44;95326.16;5012070;28;20211;-69
2022/11/28 09:44:09;;;;;;;6.18;5.68;;;;;;;3.61;78.40;95319.56;4996278;28;20235;-70
2022/11/28 09:46:38;;;;;;;5.97;5.57;;;;;;;3.79;78.30;95317.06;4996132;28;20195;-69
2022/11/28 09:49:17;;;;;;;7.07;6.50;;;;;;;3.80;77.92;95315.94;4995587;28;20203;-69
2022/11/28 09:51:53;;;;;;;8.93;8.10;;;;;;;3.91;77.77;95316.53;5011313;28;20207;-69
2022/11/28 09:54:25;;;;;;;10.13;9.32;;;;;;;3.99;77.97;95316.63;4995991;28;20187;-69
2022/11/28 09:56:54;;;;;;;6.60;6.00;;;;;;;4.26;77.31;95314.97;4995968;28;20188;-69
2022/11/28 09:59:26;;;;;;;6.60;6.03;;;;;;;4.57;76.39;95310.47;4994955;28;20219;-70
2022/11/28 10:02:04;;;;;;;5.40;5.00;;;;;;;4.74;74.89;95323.44;4995847;28;20228;-69
2022/11/28 10:04:43;;;;;;;5.15;4.75;;;;;;;4.86;73.62;95313.88;4997577;28;20200;-69
2022/11/28 10:07:18;;;;;;;5.80;5.30;;;;;;;5.20;72.47;95316.84;4999139;28;20213;-69
2022/11/28 10:09:54;;;;;;;4.82;4.40;;;;;;;5.32;72.02;95308.06;4999971;28;20195;-69
2022/11/28 10:12:35;;;;;;;3.33;3.03;;;;;;;5.28;69.47;95310.59;4998956;28;20191;-69
2022/11/28 10:15:11;;;;;;;3.30;3.10;;;;;;;5.42;68.56;95298.78;4999457;28;20203;-69
2022/11/28 10:17:45;;;;;;;4.57;4.18;;;;;;;5.73;69.10;95299.53;4999828;28;20200;-69
2022/11/28 10:20:19;;;;;;;4.20;3.90;;;;;;;5.82;67.44;95301.53;4998753;28;20208;-69
2022/11/28 10:22:51;;;;;;;3.80;3.50;;;;;;;5.71;67.70;95282.66;5024360;28;20538;-69
2022/11/28 10:25:22;;;;;;;3.45;3.25;;;;;;;5.88;67.92;95287.38;5038917;28;20195;-69
2022/11/28 10:27:56;;;;;;;3.92;3.70;;;;;;;6.00;67.34;95273.91;5021578;28;20209;-69
2022/11/28 10:30:25;;;;;;;3.33;3.03;;;;;;;5.84;66.26;95274.63;5021284;28;20195;-69
2022/11/28 10:32:57;;;;;;;4.25;3.85;;;;;;;5.61;67.17;95271.19;5021283;28;20214;-69
2022/11/28 10:35:30;;;;;;;6.20;5.70;;;;;;;5.36;68.21;95275.41;5021435;28;20265;-69
2022/11/28 10:37:58;;;;;;;7.68;7.05;;;;;;;5.38;68.79;95264.97;5020981;28;20210;-69
2022/11/28 10:40:30;;;;;;;11.43;10.52;;;;;;;5.45;69.02;95268.06;5020727;28;20209;-69
2022/11/28 10:43:03;;;;;;;7.07;6.53;;;;;;;5.22;68.10;95278.22;5020712;28;20233;-69
2022/11/28 10:45:37;;;;;;;7.00;6.40;;;;;;;5.03;68.20;95265.59;5021038;28;20202;-69
2022/11/28 10:48:17;;;;;;;6.68;6.10;;;;;;;4.94;68.83;95256.53;5021547;28;20198;-70
2022/11/28 10:50:51;;;;;;;10.43;9.43;;;;;;;4.82;68.52;95257.09;5024197;28;20202;-70
2022/11/28 10:53:29;;;;;;;7.35;6.65;;;;;;;4.58;69.31;95259.34;5021955;28;20198;-70
2022/11/28 10:56:04;;;;;;;8.57;7.78;;;;;;;4.50;69.53;95260.06;5020759;28;20530;-70
2022/11/28 10:58:38;;;;;;;7.63;6.93;;;;;;;4.50;69.13;95254.59;5020250;28;20209;-70
2022/11/28 11:01:06;;;;;;;8.25;7.53;;;;;;;4.43;69.73;95260.53;5020709;28;20268;-70
2022/11/28 11:03:36;;;;;;;9.07;8.18;;;;;;;4.54;69.65;95261.09;5020707;28;20551;-70
2022/11/28 11:06:07;;;;;;;8.98;8.18;;;;;;;4.47;69.54;95260.72;5038245;28;20195;-70
2022/11/28 11:08:36;;;;;;;8.95;8.15;;;;;;;4.38;70.20;95260.63;5037756;28;20281;-70
2022/11/28 11:11:06;;;;;;;15.20;13.93;;;;;;;4.29;70.34;95254.31;5021664;28;20195;-70
2022/11/28 11:13:55;;;;;;;9.48;8.70;;;;;;;4.25;70.34;95256.03;5038357;28;20190;-70
2022/11/28 11:16:22;;;;;;;7.32;6.82;;;;;;;4.25;70.10;95245.91;5037394;28;20690;-70
2022/11/28 11:18:55;;;;;;;6.70;6.18;;;;;;;4.21;70.63;95244.94;5020853;28;20199;-70
2022/11/28 11:21:27;;;;;;;4.88;4.47;;;;;;;4.27;70.65;95257.31;5037399;28;20294;-69
2022/11/28 11:24:15;;;;;;;7.13;6.43;;;;;;;4.35;70.08;95232.00;5037557;28;20187;-70
2022/11/28 11:26:44;;;;;;;6.68;6.00;;;;;;;4.45;70.53;95239.16;5019962;28;20206;-70
2022/11/28 11:29:22;;;;;;;5.13;4.72;;;;;;;4.58;70.23;95226.56;5020328;28;20209;-70
2022/11/28 11:31:52;;;;;;;3.92;3.63;;;;;;;4.64;69.14;95229.97;5020015;28;20194;-70
2022/11/28 11:34:20;;;;;;;3.42;3.20;;;;;;;4.57;68.68;95224.94;5019871;28;20595;-70
2022/11/28 11:36:50;;;;;;;3.72;3.45;;;;;;;4.56;68.57;95221.41;5020301;28;20202;-71
2022/11/28 11:39:21;;;;;;;4.00;3.63;;;;;;;4.81;69.08;95216.41;5020570;28;20225;-70
2022/11/28 11:41:52;;;;;;;2.95;2.75;;;;;;;5.14;68.33;95211.44;5020642;28;20213;-70
2022/11/28 11:44:33;;;;;;;3.40;3.10;;;;;;;5.21;66.90;95208.25;5021026;28;20211;-70
2022/11/28 11:47:05;;;;;;;3.17;2.97;;;;;;;5.64;66.40;95202.13;5040622;28;20174;-70
2022/11/28 11:49:36;;;;;;;3.20;2.90;;;;;;;6.05;65.21;95200.94;5045453;28;20182;-69
2022/11/28 11:52:07;;;;;;;3.20;3.00;;;;;;;6.61;64.57;95194.50;5043402;28;20190;-70
2022/11/28 11:54:35;;;;;;;4.70;3.70;;;;;;;6.87;62.83;95202.69;5023296;28;20194;-70
2022/11/28 11:57:05;;;;;;;4.57;4.18;;;;;;;7.35;60.52;95201.56;5024879;28;20198;-69
2022/11/28 11:59:37;;;;;;;5.22;4.82;;;;;;;7.32;60.90;95195.91;5024747;28;20194;-69
2022/11/28 12:02:08;;;;;;;4.45;4.10;;;;;;;6.68;61.31;95196.72;5042988;28;20214;-69